sensor_id;sensor_type;location;lat;lon;timestamp;pressure;altitude;pressure_sealevel;temperature;humidity
67345;BME280;54230;52.402;6.276;2024-03-02T00:00:01;99980.0;;;10.4;57.9
67345;BME280;54230;52.402;6.276;2024-03-02T00:05:00;99980.0;;;10.3;58.0
67345;BME280;54230;52.402;6.276;2024-03-02T00:10:00;99980.0;;;10.3;58.3
67345;BME280;54230;52.402;6.276;2024-03-02T00:15:00;99970.0;;;10.3;58.5
67345;BME280;54230;52.402;6.276;2024-03-02T00:20:00;99970.0;;;10.4;58.5
67345;BME280;54230;52.402;6.276;2024-03-02T00:25:00;99960.0;;;10.5;58.4
67345;BME280;54230;52.402;6.276;2024-03-02T00:30:00;99950.0;;;10.6;58.3
67345;BME280;54230;52.402;6.276;2024-03-02T00:35:00;99940.0;;;10.6;58.0
67345;BME280;54230;52.402;6.276;2024-03-02T00:40:00;99930.0;;;10.7;57.7
67345;BME280;54230;52.402;6.276;2024-03-02T00:45:00;99940.0;;;10.7;57.8
67345;BME280;54230;52.402;6.276;2024-03-02T00:50:00;99940.0;;;10.7;57.7
67345;BME280;54230;52.402;6.276;2024-03-02T00:55:00;99930.0;;;10.7;57.5
67345;BME280;54230;52.402;6.276;2024-03-02T01:00:00;99940.0;;;10.8;57.6
67345;BME280;54230;52.402;6.276;2024-03-02T01:05:00;99940.0;;;10.8;57.5
67345;BME280;54230;52.402;6.276;2024-03-02T01:10:00;99940.0;;;10.7;57.7
67345;BME280;54230;52.402;6.276;2024-03-02T01:15:00;99940.0;;;10.8;57.6
67345;BME280;54230;52.402;6.276;2024-03-02T01:20:00;99940.0;;;10.9;57.6
67345;BME280;54230;52.402;6.276;2024-03-02T01:25:00;99940.0;;;11.0;57.5
67345;BME280;54230;52.402;6.276;2024-03-02T01:30:00;99930.0;;;11.0;57.4
67345;BME280;54230;52.402;6.276;2024-03-02T01:35:00;99940.0;;;11.1;57.2
67345;BME280;54230;52.402;6.276;2024-03-02T01:40:00;99930.0;;;11.2;56.9
67345;BME280;54230;52.402;6.276;2024-03-02T01:45:00;99940.0;;;11.2;56.9
67345;BME280;54230;52.402;6.276;2024-03-02T01:50:00;99930.0;;;11.2;57.0
67345;BME280;54230;52.402;6.276;2024-03-02T01:55:00;99950.0;;;11.3;57.2
67345;BME280;54230;52.402;6.276;2024-03-02T02:00:01;99960.0;;;11.4;56.7
67345;BME280;54230;52.402;6.276;2024-03-02T02:05:00;99960.0;;;11.5;56.7
67345;BME280;54230;52.402;6.276;2024-03-02T02:10:00;99960.0;;;11.4;56.8
67345;BME280;54230;52.402;6.276;2024-03-02T02:15:00;99970.0;;;11.5;56.7
67345;BME280;54230;52.402;6.276;2024-03-02T02:20:00;99980.0;;;11.5;56.5
67345;BME280;54230;52.402;6.276;2024-03-02T02:25:00;99970.0;;;11.6;56.4
67345;BME280;54230;52.402;6.276;2024-03-02T02:30:00;99980.0;;;11.5;56.5
67345;BME280;54230;52.402;6.276;2024-03-02T02:35:00;99970.0;;;11.5;56.9
67345;BME280;54230;52.402;6.276;2024-03-02T02:40:00;99960.0;;;11.4;57.2
67345;BME280;54230;52.402;6.276;2024-03-02T02:45:00;99950.0;;;11.5;57.4
67345;BME280;54230;52.402;6.276;2024-03-02T02:50:01;99940.0;;;11.6;57.4
67345;BME280;54230;52.402;6.276;2024-03-02T02:55:01;99920.0;;;11.6;57.5
67345;BME280;54230;52.402;6.276;2024-03-02T03:00:00;99930.0;;;11.6;57.7
67345;BME280;54230;52.402;6.276;2024-03-02T03:05:00;99930.0;;;11.5;57.6
67345;BME280;54230;52.402;6.276;2024-03-02T03:10:00;99930.0;;;11.6;57.8
67345;BME280;54230;52.402;6.276;2024-03-02T03:15:01;99940.0;;;11.6;57.7
67345;BME280;54230;52.402;6.276;2024-03-02T03:20:01;99930.0;;;11.5;57.8
67345;BME280;54230;52.402;6.276;2024-03-02T03:25:00;99940.0;;;11.4;57.8
67345;BME280;54230;52.402;6.276;2024-03-02T03:30:00;99940.0;;;11.5;57.9
67345;BME280;54230;52.402;6.276;2024-03-02T03:35:00;99950.0;;;11.5;58.0
67345;BME280;54230;52.402;6.276;2024-03-02T03:40:00;99950.0;;;11.4;58.1
67345;BME280;54230;52.402;6.276;2024-03-02T03:45:00;99950.0;;;11.4;58.2
67345;BME280;54230;52.402;6.276;2024-03-02T03:50:00;99950.0;;;11.4;58.2
67345;BME280;54230;52.402;6.276;2024-03-02T03:55:00;99950.0;;;11.5;58.4
67345;BME280;54230;52.402;6.276;2024-03-02T04:00:00;99970.0;;;11.3;58.5
67345;BME280;54230;52.402;6.276;2024-03-02T04:05:00;99970.0;;;11.3;58.6
67345;BME280;54230;52.402;6.276;2024-03-02T04:10:00;99980.0;;;11.2;58.8
67345;BME280;54230;52.402;6.276;2024-03-02T04:15:00;99990.0;;;11.1;59.1
67345;BME280;54230;52.402;6.276;2024-03-02T04:20:01;99990.0;;;11.2;59.2
67345;BME280;54230;52.402;6.276;2024-03-02T04:25:00;99990.0;;;11.1;59.2
67345;BME280;54230;52.402;6.276;2024-03-02T04:30:00;100000.0;;;10.9;59.6
67345;BME280;54230;52.402;6.276;2024-03-02T04:35:00;99990.0;;;10.8;59.7
67345;BME280;54230;52.402;6.276;2024-03-02T04:40:00;99980.0;;;10.8;59.7
67345;BME280;54230;52.402;6.276;2024-03-02T04:45:00;100000.0;;;10.8;59.5
67345;BME280;54230;52.402;6.276;2024-03-02T04:50:00;100020.0;;;10.6;60.0
67345;BME280;54230;52.402;6.276;2024-03-02T04:55:00;100020.0;;;10.6;60.3
67345;BME280;54230;52.402;6.276;2024-03-02T05:00:00;100020.0;;;10.4;60.9
67345;BME280;54230;52.402;6.276;2024-03-02T05:05:00;100020.0;;;10.2;61.0
67345;BME280;54230;52.402;6.276;2024-03-02T05:10:00;100030.0;;;10.1;61.3
67345;BME280;54230;52.402;6.276;2024-03-02T05:15:00;100040.0;;;10.0;61.6
67345;BME280;54230;52.402;6.276;2024-03-02T05:20:00;100040.0;;;9.8;62.1
67345;BME280;54230;52.402;6.276;2024-03-02T05:25:00;100050.0;;;9.8;62.4
67345;BME280;54230;52.402;6.276;2024-03-02T05:30:00;100050.0;;;9.7;62.8
67345;BME280;54230;52.402;6.276;2024-03-02T05:35:00;100050.0;;;9.7;63.0
67345;BME280;54230;52.402;6.276;2024-03-02T05:40:00;100060.0;;;9.7;62.9
67345;BME280;54230;52.402;6.276;2024-03-02T05:45:00;100070.0;;;9.7;63.4
67345;BME280;54230;52.402;6.276;2024-03-02T05:50:00;100060.0;;;9.8;63.5
67345;BME280;54230;52.402;6.276;2024-03-02T05:55:00;100060.0;;;9.9;63.5
67345;BME280;54230;52.402;6.276;2024-03-02T06:00:00;100060.0;;;10.0;63.5
67345;BME280;54230;52.402;6.276;2024-03-02T06:05:00;100070.0;;;10.0;63.5
67345;BME280;54230;52.402;6.276;2024-03-02T06:10:00;100080.0;;;10.0;63.4
67345;BME280;54230;52.402;6.276;2024-03-02T06:15:00;100070.0;;;10.0;63.2
67345;BME280;54230;52.402;6.276;2024-03-02T06:20:00;100080.0;;;9.8;63.6
67345;BME280;54230;52.402;6.276;2024-03-02T06:25:00;100090.0;;;9.8;63.8
67345;BME280;54230;52.402;6.276;2024-03-02T06:30:00;100100.0;;;9.6;64.2
67345;BME280;54230;52.402;6.276;2024-03-02T06:35:00;100100.0;;;9.6;64.5
67345;BME280;54230;52.402;6.276;2024-03-02T06:40:00;100110.0;;;9.6;64.9
67345;BME280;54230;52.402;6.276;2024-03-02T06:45:00;100120.0;;;9.6;64.7
67345;BME280;54230;52.402;6.276;2024-03-02T06:50:00;100120.0;;;9.6;64.9
67345;BME280;54230;52.402;6.276;2024-03-02T06:55:00;100120.0;;;9.5;65.0
67345;BME280;54230;52.402;6.276;2024-03-02T07:00:00;100120.0;;;9.5;65.1
67345;BME280;54230;52.402;6.276;2024-03-02T07:05:00;100120.0;;;9.6;64.8
67345;BME280;54230;52.402;6.276;2024-03-02T07:10:00;100120.0;;;9.6;64.6
67345;BME280;54230;52.402;6.276;2024-03-02T07:15:00;100120.0;;;9.5;64.2
67345;BME280;54230;52.402;6.276;2024-03-02T07:20:00;100120.0;;;9.5;64.6
67345;BME280;54230;52.402;6.276;2024-03-02T07:25:00;100140.0;;;9.5;64.6
67345;BME280;54230;52.402;6.276;2024-03-02T07:30:01;100140.0;;;9.6;65.3
67345;BME280;54230;52.402;6.276;2024-03-02T07:35:00;100150.0;;;9.7;65.2
67345;BME280;54230;52.402;6.276;2024-03-02T07:40:00;100150.0;;;9.8;65.0
67345;BME280;54230;52.402;6.276;2024-03-02T07:45:00;100150.0;;;9.8;64.9
67345;BME280;54230;52.402;6.276;2024-03-02T07:50:00;100160.0;;;9.8;64.8
67345;BME280;54230;52.402;6.276;2024-03-02T07:55:00;100170.0;;;9.9;64.3
67345;BME280;54230;52.402;6.276;2024-03-02T08:00:00;100170.0;;;10.0;64.3
67345;BME280;54230;52.402;6.276;2024-03-02T08:05:01;100170.0;;;10.1;64.0
67345;BME280;54230;52.402;6.276;2024-03-02T08:10:00;100180.0;;;10.3;63.8
67345;BME280;54230;52.402;6.276;2024-03-02T08:15:00;100180.0;;;10.4;63.6
67345;BME280;54230;52.402;6.276;2024-03-02T08:20:00;100190.0;;;10.5;63.3
67345;BME280;54230;52.402;6.276;2024-03-02T08:25:00;100190.0;;;10.4;63.0
67345;BME280;54230;52.402;6.276;2024-03-02T08:30:00;100190.0;;;10.4;62.8
67345;BME280;54230;52.402;6.276;2024-03-02T08:35:00;100190.0;;;10.7;62.4
67345;BME280;54230;52.402;6.276;2024-03-02T08:40:00;100180.0;;;10.6;62.1
67345;BME280;54230;52.402;6.276;2024-03-02T08:45:00;100190.0;;;10.9;61.5
67345;BME280;54230;52.402;6.276;2024-03-02T08:50:00;100190.0;;;11.1;60.8
67345;BME280;54230;52.402;6.276;2024-03-02T08:55:00;100180.0;;;11.3;60.7
67345;BME280;54230;52.402;6.276;2024-03-02T09:00:00;100190.0;;;11.4;59.8
67345;BME280;54230;52.402;6.276;2024-03-02T09:05:00;100200.0;;;11.4;59.4
67345;BME280;54230;52.402;6.276;2024-03-02T09:10:00;100200.0;;;11.4;59.1
67345;BME280;54230;52.402;6.276;2024-03-02T09:15:01;100190.0;;;11.4;59.0
67345;BME280;54230;52.402;6.276;2024-03-02T09:20:00;100200.0;;;11.6;58.8
67345;BME280;54230;52.402;6.276;2024-03-02T09:25:00;100210.0;;;11.6;58.4
67345;BME280;54230;52.402;6.276;2024-03-02T09:30:00;100200.0;;;11.6;58.0
67345;BME280;54230;52.402;6.276;2024-03-02T09:35:00;100200.0;;;11.8;57.4
67345;BME280;54230;52.402;6.276;2024-03-02T09:40:00;100200.0;;;11.9;56.8
67345;BME280;54230;52.402;6.276;2024-03-02T09:45:00;100190.0;;;12.0;56.0
67345;BME280;54230;52.402;6.276;2024-03-02T09:50:00;100190.0;;;12.1;55.5
67345;BME280;54230;52.402;6.276;2024-03-02T09:55:00;100200.0;;;12.3;55.2
67345;BME280;54230;52.402;6.276;2024-03-02T10:00:00;100210.0;;;12.4;54.8
67345;BME280;54230;52.402;6.276;2024-03-02T10:05:00;100210.0;;;12.5;54.1
67345;BME280;54230;52.402;6.276;2024-03-02T10:15:03;100200.0;;;12.7;53.1
67345;BME280;54230;52.402;6.276;2024-03-02T10:25:00;100190.0;;;12.6;52.6
67345;BME280;54230;52.402;6.276;2024-03-02T10:30:03;100190.0;;;12.6;52.5
67345;BME280;54230;52.402;6.276;2024-03-02T10:35:00;100200.0;;;12.8;52.1
67345;BME280;54230;52.402;6.276;2024-03-02T10:40:04;100200.0;;;12.9;51.7
67345;BME280;54230;52.402;6.276;2024-03-02T10:45:00;100200.0;;;13.1;51.3
67345;BME280;54230;52.402;6.276;2024-03-02T10:50:00;100200.0;;;13.2;51.2
67345;BME280;54230;52.402;6.276;2024-03-02T10:55:00;100190.0;;;13.4;51.2
67345;BME280;54230;52.402;6.276;2024-03-02T11:00:03;100200.0;;;13.7;50.8
67345;BME280;54230;52.402;6.276;2024-03-02T11:05:05;100200.0;;;13.7;50.2
67345;BME280;54230;52.402;6.276;2024-03-02T11:10:01;100200.0;;;13.6;50.8
67345;BME280;54230;52.402;6.276;2024-03-02T11:15:00;100190.0;;;13.6;50.5
67345;BME280;54230;52.402;6.276;2024-03-02T11:20:00;100190.0;;;13.7;50.6
67345;BME280;54230;52.402;6.276;2024-03-02T11:25:00;100190.0;;;13.9;50.4
67345;BME280;54230;52.402;6.276;2024-03-02T11:30:00;100190.0;;;14.0;49.8
67345;BME280;54230;52.402;6.276;2024-03-02T11:35:02;100190.0;;;14.0;49.7
67345;BME280;54230;52.402;6.276;2024-03-02T11:40:00;100180.0;;;14.0;49.1
67345;BME280;54230;52.402;6.276;2024-03-02T11:45:00;100180.0;;;13.9;49.1
67345;BME280;54230;52.402;6.276;2024-03-02T11:50:00;100180.0;;;14.0;49.3
67345;BME280;54230;52.402;6.276;2024-03-02T11:55:01;100150.0;;;14.2;48.7
67345;BME280;54230;52.402;6.276;2024-03-02T12:00:00;100150.0;;;14.2;48.1
67345;BME280;54230;52.402;6.276;2024-03-02T12:05:02;100160.0;;;14.2;47.9
67345;BME280;54230;52.402;6.276;2024-03-02T12:10:00;100160.0;;;14.2;47.8
67345;BME280;54230;52.402;6.276;2024-03-02T12:15:00;100160.0;;;14.2;48.1
67345;BME280;54230;52.402;6.276;2024-03-02T12:20:00;100150.0;;;14.4;47.9
67345;BME280;54230;52.402;6.276;2024-03-02T12:25:00;100150.0;;;14.4;47.9
67345;BME280;54230;52.402;6.276;2024-03-02T12:30:00;100140.0;;;14.4;48.4
67345;BME280;54230;52.402;6.276;2024-03-02T12:35:00;100130.0;;;14.6;48.6
67345;BME280;54230;52.402;6.276;2024-03-02T12:40:00;100130.0;;;14.8;48.3
67345;BME280;54230;52.402;6.276;2024-03-02T12:45:00;100130.0;;;14.9;47.9
67345;BME280;54230;52.402;6.276;2024-03-02T12:50:00;100140.0;;;14.8;47.8
67345;BME280;54230;52.402;6.276;2024-03-02T12:55:01;100130.0;;;15.0;47.2
67345;BME280;54230;52.402;6.276;2024-03-02T13:00:01;100120.0;;;15.0;47.2
67345;BME280;54230;52.402;6.276;2024-03-02T13:05:00;100130.0;;;15.0;47.2
67345;BME280;54230;52.402;6.276;2024-03-02T13:10:00;100120.0;;;15.1;47.2
67345;BME280;54230;52.402;6.276;2024-03-02T13:15:00;100130.0;;;15.1;46.5
67345;BME280;54230;52.402;6.276;2024-03-02T13:20:00;100120.0;;;15.0;46.3
67345;BME280;54230;52.402;6.276;2024-03-02T13:25:00;100130.0;;;15.1;46.1
67345;BME280;54230;52.402;6.276;2024-03-02T13:30:02;100120.0;;;15.4;45.4
67345;BME280;54230;52.402;6.276;2024-03-02T13:35:00;100120.0;;;15.5;44.7
67345;BME280;54230;52.402;6.276;2024-03-02T13:40:00;100120.0;;;15.8;44.7
67345;BME280;54230;52.402;6.276;2024-03-02T13:45:00;100110.0;;;16.1;43.4
67345;BME280;54230;52.402;6.276;2024-03-02T13:50:00;100110.0;;;16.2;43.0
67345;BME280;54230;52.402;6.276;2024-03-02T13:55:00;100100.0;;;16.3;43.0
67345;BME280;54230;52.402;6.276;2024-03-02T14:00:00;100090.0;;;16.3;42.9
67345;BME280;54230;52.402;6.276;2024-03-02T14:05:00;100090.0;;;16.5;43.2
67345;BME280;54230;52.402;6.276;2024-03-02T14:10:00;100090.0;;;16.5;42.7
67345;BME280;54230;52.402;6.276;2024-03-02T14:15:00;100080.0;;;16.5;42.4
67345;BME280;54230;52.402;6.276;2024-03-02T14:20:00;100080.0;;;16.5;42.2
67345;BME280;54230;52.402;6.276;2024-03-02T14:25:00;100080.0;;;16.6;41.9
67345;BME280;54230;52.402;6.276;2024-03-02T14:30:00;100080.0;;;16.5;41.9
67345;BME280;54230;52.402;6.276;2024-03-02T14:35:00;100070.0;;;16.7;41.9
67345;BME280;54230;52.402;6.276;2024-03-02T14:40:00;100070.0;;;16.8;41.6
67345;BME280;54230;52.402;6.276;2024-03-02T14:45:00;100060.0;;;17.1;41.3
67345;BME280;54230;52.402;6.276;2024-03-02T14:50:00;100050.0;;;17.4;40.7
67345;BME280;54230;52.402;6.276;2024-03-02T14:55:00;100060.0;;;17.6;40.5
67345;BME280;54230;52.402;6.276;2024-03-02T15:00:01;100050.0;;;17.6;40.7
67345;BME280;54230;52.402;6.276;2024-03-02T15:05:00;100050.0;;;17.7;40.0
67345;BME280;54230;52.402;6.276;2024-03-02T15:10:00;100050.0;;;17.9;40.3
67345;BME280;54230;52.402;6.276;2024-03-02T15:15:00;100040.0;;;18.4;39.7
67345;BME280;54230;52.402;6.276;2024-03-02T15:20:00;100040.0;;;18.6;38.7
67345;BME280;54230;52.402;6.276;2024-03-02T15:25:00;100040.0;;;18.5;38.6
67345;BME280;54230;52.402;6.276;2024-03-02T15:30:00;100040.0;;;18.0;39.4
67345;BME280;54230;52.402;6.276;2024-03-02T15:35:00;100030.0;;;18.1;39.5
67345;BME280;54230;52.402;6.276;2024-03-02T15:40:00;100020.0;;;18.4;40.0
67345;BME280;54230;52.402;6.276;2024-03-02T15:45:00;100020.0;;;18.7;38.9
67345;BME280;54230;52.402;6.276;2024-03-02T15:50:00;100030.0;;;18.8;38.8
67345;BME280;54230;52.402;6.276;2024-03-02T15:55:00;100020.0;;;18.7;38.7
67345;BME280;54230;52.402;6.276;2024-03-02T16:00:00;100010.0;;;18.5;39.1
67345;BME280;54230;52.402;6.276;2024-03-02T16:05:00;100010.0;;;18.3;39.3
67345;BME280;54230;52.402;6.276;2024-03-02T16:10:00;100020.0;;;18.2;39.6
67345;BME280;54230;52.402;6.276;2024-03-02T16:15:00;100020.0;;;18.0;39.9
67345;BME280;54230;52.402;6.276;2024-03-02T16:20:00;100020.0;;;17.9;42.2
67345;BME280;54230;52.402;6.276;2024-03-02T16:25:00;100020.0;;;18.3;42.1
67345;BME280;54230;52.402;6.276;2024-03-02T16:30:00;100020.0;;;18.5;43.1
67345;BME280;54230;52.402;6.276;2024-03-02T16:35:00;100020.0;;;18.4;43.5
67345;BME280;54230;52.402;6.276;2024-03-02T16:40:00;100020.0;;;18.4;43.0
67345;BME280;54230;52.402;6.276;2024-03-02T16:45:01;100020.0;;;18.1;42.7
67345;BME280;54230;52.402;6.276;2024-03-02T16:50:00;100020.0;;;17.9;43.3
67345;BME280;54230;52.402;6.276;2024-03-02T16:55:00;100020.0;;;17.5;42.8
67345;BME280;54230;52.402;6.276;2024-03-02T17:00:00;100020.0;;;17.4;43.7
67345;BME280;54230;52.402;6.276;2024-03-02T17:05:00;100020.0;;;17.1;43.3
67345;BME280;54230;52.402;6.276;2024-03-02T17:10:00;100020.0;;;16.8;44.0
67345;BME280;54230;52.402;6.276;2024-03-02T17:15:00;100020.0;;;16.4;44.9
67345;BME280;54230;52.402;6.276;2024-03-02T17:20:00;100020.0;;;16.2;45.7
67345;BME280;54230;52.402;6.276;2024-03-02T17:25:00;100020.0;;;16.3;46.3
67345;BME280;54230;52.402;6.276;2024-03-02T17:30:00;100020.0;;;16.2;46.8
67345;BME280;54230;52.402;6.276;2024-03-02T17:35:00;100020.0;;;16.1;46.4
67345;BME280;54230;52.402;6.276;2024-03-02T17:40:00;100030.0;;;15.6;46.1
67345;BME280;54230;52.402;6.276;2024-03-02T17:45:00;100030.0;;;15.2;46.7
67345;BME280;54230;52.402;6.276;2024-03-02T17:50:00;100030.0;;;15.0;47.4
67345;BME280;54230;52.402;6.276;2024-03-02T17:55:00;100030.0;;;14.8;47.7
67345;BME280;54230;52.402;6.276;2024-03-02T18:00:00;100040.0;;;14.6;48.2
67345;BME280;54230;52.402;6.276;2024-03-02T18:05:00;100040.0;;;14.5;48.4
67345;BME280;54230;52.402;6.276;2024-03-02T18:10:00;100050.0;;;14.3;48.8
67345;BME280;54230;52.402;6.276;2024-03-02T18:15:00;100040.0;;;14.2;49.3
67345;BME280;54230;52.402;6.276;2024-03-02T18:20:00;100050.0;;;14.1;49.8
67345;BME280;54230;52.402;6.276;2024-03-02T18:25:00;100050.0;;;14.1;50.1
67345;BME280;54230;52.402;6.276;2024-03-02T18:30:00;100050.0;;;14.1;50.5
67345;BME280;54230;52.402;6.276;2024-03-02T18:35:00;100050.0;;;14.1;50.6
67345;BME280;54230;52.402;6.276;2024-03-02T18:40:00;100060.0;;;14.0;50.7
67345;BME280;54230;52.402;6.276;2024-03-02T18:45:00;100050.0;;;13.9;51.0
67345;BME280;54230;52.402;6.276;2024-03-02T18:50:00;100050.0;;;14.0;52.3
67345;BME280;54230;52.402;6.276;2024-03-02T18:55:00;100050.0;;;14.1;52.2
67345;BME280;54230;52.402;6.276;2024-03-02T19:00:01;100050.0;;;14.2;53.5
67345;BME280;54230;52.402;6.276;2024-03-02T19:05:00;100050.0;;;14.2;53.3
67345;BME280;54230;52.402;6.276;2024-03-02T19:10:00;100050.0;;;14.2;54.5
67345;BME280;54230;52.402;6.276;2024-03-02T19:15:00;100050.0;;;14.2;54.1
67345;BME280;54230;52.402;6.276;2024-03-02T19:20:00;100050.0;;;14.2;54.7
67345;BME280;54230;52.402;6.276;2024-03-02T19:25:01;100050.0;;;14.2;53.6
67345;BME280;54230;52.402;6.276;2024-03-02T19:30:00;100050.0;;;14.2;53.6
67345;BME280;54230;52.402;6.276;2024-03-02T19:35:00;100050.0;;;14.2;54.3
67345;BME280;54230;52.402;6.276;2024-03-02T19:40:00;100040.0;;;14.4;53.8
67345;BME280;54230;52.402;6.276;2024-03-02T19:45:00;100050.0;;;14.6;54.4
67345;BME280;54230;52.402;6.276;2024-03-02T19:50:00;100040.0;;;14.6;52.6
67345;BME280;54230;52.402;6.276;2024-03-02T19:55:00;100040.0;;;14.6;52.8
67345;BME280;54230;52.402;6.276;2024-03-02T20:00:00;100040.0;;;14.6;52.6
67345;BME280;54230;52.402;6.276;2024-03-02T20:05:00;100030.0;;;14.7;53.3
67345;BME280;54230;52.402;6.276;2024-03-02T20:10:00;100030.0;;;14.7;52.3
67345;BME280;54230;52.402;6.276;2024-03-02T20:15:00;100020.0;;;14.8;52.4
67345;BME280;54230;52.402;6.276;2024-03-02T20:20:00;100020.0;;;14.8;52.4
67345;BME280;54230;52.402;6.276;2024-03-02T20:25:00;100010.0;;;14.8;52.0
67345;BME280;54230;52.402;6.276;2024-03-02T20:30:00;100010.0;;;14.7;51.7
67345;BME280;54230;52.402;6.276;2024-03-02T20:35:00;100010.0;;;14.4;52.2
67345;BME280;54230;52.402;6.276;2024-03-02T20:40:00;100000.0;;;14.2;52.4
67345;BME280;54230;52.402;6.276;2024-03-02T20:45:00;100000.0;;;14.0;52.7
67345;BME280;54230;52.402;6.276;2024-03-02T20:50:00;99990.0;;;13.9;53.6
67345;BME280;54230;52.402;6.276;2024-03-02T20:55:00;99990.0;;;13.9;53.9
67345;BME280;54230;52.402;6.276;2024-03-02T21:00:00;100000.0;;;13.8;54.5
67345;BME280;54230;52.402;6.276;2024-03-02T21:05:00;99990.0;;;13.6;55.1
67345;BME280;54230;52.402;6.276;2024-03-02T21:10:00;100000.0;;;13.5;54.8
67345;BME280;54230;52.402;6.276;2024-03-02T21:15:00;100000.0;;;13.4;54.8
67345;BME280;54230;52.402;6.276;2024-03-02T21:20:00;99990.0;;;13.3;54.9
67345;BME280;54230;52.402;6.276;2024-03-02T21:25:00;100000.0;;;13.2;55.3
67345;BME280;54230;52.402;6.276;2024-03-02T21:30:00;100000.0;;;13.2;55.4
67345;BME280;54230;52.402;6.276;2024-03-02T21:35:01;100000.0;;;13.2;55.1
67345;BME280;54230;52.402;6.276;2024-03-02T21:40:00;100010.0;;;13.2;55.1
67345;BME280;54230;52.402;6.276;2024-03-02T21:45:00;100010.0;;;13.3;55.3
67345;BME280;54230;52.402;6.276;2024-03-02T21:50:00;100010.0;;;13.3;54.9
67345;BME280;54230;52.402;6.276;2024-03-02T21:55:00;100010.0;;;13.3;54.7
67345;BME280;54230;52.402;6.276;2024-03-02T22:00:00;100020.0;;;13.2;54.9
67345;BME280;54230;52.402;6.276;2024-03-02T22:05:00;100020.0;;;13.2;54.8
67345;BME280;54230;52.402;6.276;2024-03-02T22:10:00;100020.0;;;13.1;54.8
67345;BME280;54230;52.402;6.276;2024-03-02T22:15:00;100020.0;;;13.1;54.9
67345;BME280;54230;52.402;6.276;2024-03-02T22:20:00;100020.0;;;13.1;54.8
67345;BME280;54230;52.402;6.276;2024-03-02T22:25:00;100030.0;;;12.9;55.3
67345;BME280;54230;52.402;6.276;2024-03-02T22:30:00;100010.0;;;12.8;55.2
67345;BME280;54230;52.402;6.276;2024-03-02T22:35:00;100020.0;;;12.8;55.5
67345;BME280;54230;52.402;6.276;2024-03-02T22:40:00;100020.0;;;12.6;55.5
67345;BME280;54230;52.402;6.276;2024-03-02T22:45:00;100020.0;;;12.5;55.7
67345;BME280;54230;52.402;6.276;2024-03-02T22:50:00;100020.0;;;12.4;55.7
67345;BME280;54230;52.402;6.276;2024-03-02T22:55:00;100020.0;;;12.4;56.0
67345;BME280;54230;52.402;6.276;2024-03-02T23:00:00;100030.0;;;12.3;56.4
67345;BME280;54230;52.402;6.276;2024-03-02T23:05:00;100030.0;;;12.4;56.4
67345;BME280;54230;52.402;6.276;2024-03-02T23:10:00;100040.0;;;12.6;56.1
67345;BME280;54230;52.402;6.276;2024-03-02T23:15:00;100030.0;;;12.7;56.0
67345;BME280;54230;52.402;6.276;2024-03-02T23:20:00;100030.0;;;12.8;55.7
67345;BME280;54230;52.402;6.276;2024-03-02T23:25:00;100030.0;;;12.8;55.7
67345;BME280;54230;52.402;6.276;2024-03-02T23:30:00;100030.0;;;12.8;55.8
67345;BME280;54230;52.402;6.276;2024-03-02T23:35:01;100030.0;;;12.9;55.5
67345;BME280;54230;52.402;6.276;2024-03-02T23:40:00;100020.0;;;12.9;55.7
67345;BME280;54230;52.402;6.276;2024-03-02T23:45:00;100020.0;;;13.0;55.7
67345;BME280;54230;52.402;6.276;2024-03-02T23:50:00;100020.0;;;13.0;55.7
67345;BME280;54230;52.402;6.276;2024-03-02T23:55:00;100020.0;;;13.0;55.6
